Time;durP1;ratioP1;P1;durP2;ratioP2;P2;SDS_P1;SDS_P2;PMS_P1;PMS_P2;Temp;Humidity;BMP_temperature;BMP_pressure;BME280_temperature;BME280_humidity;BME280_pressure;Samples;Min_cycle;Max_cycle;Signal;HPM_P1;HPM_P2
2023/05/03 00:00:48;;;;;;;16.00;5.40;;;;;;;11.27;83.78;101152.98;182284;1240;58028;-90
2023/05/03 00:04:56;;;;;;;7.00;4.20;;;;;;;11.27;83.80;101152.95;183032;1238;46118;-90
2023/05/03 00:08:58;;;;;;;8.70;5.00;;;;;;;11.24;84.43;101161.66;183405;1236;45999;-90
2023/05/03 00:13:00;;;;;;;6.10;4.70;;;;;;;11.21;83.04;101167.08;183122;1240;46103;-90
2023/05/03 00:17:02;;;;;;;12.60;4.60;;;;;;;11.09;81.01;101171.11;183228;1240;45963;-90
2023/05/03 00:21:04;;;;;;;8.80;5.40;;;;;;;11.00;80.15;101167.27;183184;1236;59396;-89
2023/05/03 00:25:10;;;;;;;5.90;4.60;;;;;;;10.92;81.49;101169.56;183164;1239;45967;-90
2023/05/03 00:29:12;;;;;;;6.30;4.70;;;;;;;10.89;82.25;101169.78;183107;1237;45988;-90
2023/05/03 00:33:15;;;;;;;6.10;3.80;;;;;;;10.84;82.36;101171.92;182407;1240;46004;-88
2023/05/03 00:37:17;;;;;;;10.30;5.30;;;;;;;10.70;80.94;101183.17;182594;1236;46129;-90
2023/05/03 00:41:20;;;;;;;10.80;5.40;;;;;;;10.62;81.13;101181.76;182891;1236;59326;-90
2023/05/03 00:45:23;;;;;;;6.60;4.90;;;;;;;10.58;82.13;101183.41;182954;1239;46018;-90
2023/05/03 00:54:13;;;;;;;8.10;5.60;;;;;;;10.46;82.52;101184.02;184220;1239;45861;-90
2023/05/03 00:58:15;;;;;;;6.30;4.60;;;;;;;10.39;82.31;101183.59;183630;1235;45897;-90
2023/05/03 01:02:19;;;;;;;8.70;5.40;;;;;;;10.33;83.50;101189.64;182982;1234;59375;-90
2023/05/03 01:06:31;;;;;;;6.00;4.60;;;;;;;10.36;85.57;101186.93;182542;1238;46103;-89
2023/05/03 01:10:46;;;;;;;14.70;5.90;;;;;;;10.20;85.85;101187.98;182315;1235;45973;-90
2023/05/03 01:15:03;;;;;;;8.10;4.30;;;;;;;10.03;85.98;101185.38;182178;1235;45947;-88
2023/05/03 01:19:32;;;;;;;10.30;5.90;;;;;;;9.91;86.35;101192.19;182128;1235;45863;-89
2023/05/03 01:23:52;;;;;;;10.20;4.90;;;;;;;9.77;86.18;101195.05;182889;1235;57997;-90
2023/05/03 01:27:55;;;;;;;14.00;4.30;;;;;;;9.58;86.28;101192.31;183106;1235;45960;-90
2023/05/03 01:32:00;;;;;;;8.10;4.70;;;;;;;9.27;86.56;101205.59;183659;1235;45646;-90
2023/05/03 01:36:12;;;;;;;5.10;3.70;;;;;;;9.09;86.84;101207.91;183380;1235;44604;-90
2023/05/03 01:40:21;;;;;;;11.60;4.40;;;;;;;8.89;87.39;101213.51;183786;1240;44559;-89
2023/05/03 01:44:25;;;;;;;10.20;5.50;;;;;;;8.77;88.65;101220.76;182819;1235;58747;-88
2023/05/03 01:48:27;;;;;;;10.80;5.60;;;;;;;8.58;89.35;101218.86;182598;1235;46087;-88
2023/05/03 01:52:29;;;;;;;10.10;4.90;;;;;;;8.42;89.09;101219.40;182444;1239;46085;-89
2023/05/03 01:56:33;;;;;;;12.00;5.10;;;;;;;8.25;90.64;101221.98;182408;1235;46062;-89
2023/05/03 02:00:35;;;;;;;15.30;6.10;;;;;;;8.23;91.86;101226.48;182336;1235;45945;-89
2023/05/03 02:04:37;;;;;;;7.80;4.20;;;;;;;8.17;92.16;101221.87;182363;1235;58147;-90
2023/05/03 02:08:39;;;;;;;8.60;5.10;;;;;;;8.02;93.11;101220.58;182400;1235;45890;-90
2023/05/03 02:12:43;;;;;;;8.70;4.00;;;;;;;7.95;92.81;101219.20;182674;1239;45963;-90
2023/05/03 02:16:45;;;;;;;5.70;4.00;;;;;;;7.85;93.86;101222.19;182581;1235;46127;-90
2023/05/03 02:20:47;;;;;;;15.80;5.60;;;;;;;7.83;93.90;101223.76;182747;1235;46040;-90
2023/05/03 02:24:49;;;;;;;9.80;4.50;;;;;;;7.66;96.15;101219.05;182981;1235;59208;-90
2023/05/03 02:28:51;;;;;;;5.10;3.90;;;;;;;7.42;98.81;101221.17;182821;1239;45657;-89
2023/05/03 02:32:53;;;;;;;10.40;4.80;;;;;;;7.16;100.00;101222.55;182359;1239;46096;-90
2023/05/03 02:36:57;;;;;;;10.40;5.80;;;;;;;7.08;100.00;101224.73;183403;1235;46057;-91
2023/05/03 02:41:00;;;;;;;12.80;4.60;;;;;;;6.99;100.00;101230.67;183916;1235;45964;-91
2023/05/03 02:45:03;;;;;;;6.30;4.50;;;;;;;6.80;100.00;101228.80;183539;1238;59479;-90
2023/05/03 02:49:07;;;;;;;16.00;4.40;;;;;;;6.83;100.00;101228.15;183191;1235;44550;-90
2023/05/03 02:53:09;;;;;;;11.30;6.00;;;;;;;6.97;100.00;101228.47;182488;1241;46078;-89
2023/05/03 02:57:11;;;;;;;9.00;5.80;;;;;;;6.81;100.00;101228.03;182795;1235;46039;-90
2023/05/03 03:01:16;;;;;;;11.10;5.20;;;;;;;6.78;100.00;101230.31;182928;1235;45947;-90
2023/05/03 03:05:21;;;;;;;9.10;5.60;;;;;;;6.87;100.00;101229.87;183468;1235;59174;-90
2023/05/03 03:09:38;;;;;;;8.70;4.70;;;;;;;6.72;100.00;101229.02;183688;1235;44695;-91
2023/05/03 03:13:41;;;;;;;;;;;;;;;6.56;100.00;101229.10;184572;1235;45892;-91
2023/05/03 03:18:06;;;;;;;6.00;4.10;;;;;;;6.43;100.00;101227.46;184181;1235;44554;-90
2023/05/03 03:22:28;;;;;;;9.70;5.20;;;;;;;6.29;100.00;101233.44;184181;1239;45856;-90
2023/05/03 03:26:32;;;;;;;9.90;5.10;;;;;;;6.19;100.00;101239.19;183509;1235;58464;-90
2023/05/03 03:31:01;;;;;;;6.80;4.40;;;;;;;6.19;100.00;101242.17;183312;1235;45483;-89
2023/05/03 03:35:27;;;;;;;9.20;6.20;;;;;;;6.30;100.00;101245.87;183750;1235;46087;-89
2023/05/03 03:39:30;;;;;;;10.10;5.20;;;;;;;6.21;100.00;101245.80;183911;1236;44566;-90
2023/05/03 03:43:33;;;;;;;10.90;6.30;;;;;;;6.16;100.00;101246.72;183353;1240;45649;-90
2023/05/03 03:47:37;;;;;;;12.30;5.80;;;;;;;6.19;100.00;101250.46;182777;1236;59185;-89
2023/05/03 03:51:39;;;;;;;7.20;5.00;;;;;;;6.15;100.00;101253.84;182686;1235;46072;-89
2023/05/03 03:55:46;;;;;;;11.90;6.50;;;;;;;6.12;100.00;101253.44;182906;1235;46049;-89
2023/05/03 04:27:58;;;;;;;10.70;5.00;;;;;;;8.02;95.63;101291.59;184837;1237;43668;-64
2023/05/03 04:32:13;;;;;;;8.70;4.90;;;;;;;7.84;95.56;101298.38;184907;1236;43719;-64
2023/05/03 04:36:14;;;;;;;10.10;5.90;;;;;;;8.07;95.96;101303.20;184755;1236;58179;-64
2023/05/03 04:40:20;;;;;;;9.40;5.60;;;;;;;8.42;93.51;101304.27;184821;1238;43546;-64
2023/05/03 04:44:22;;;;;;;9.90;5.30;;;;;;;8.33;91.85;101306.20;184817;1237;46070;-64
2023/05/03 04:48:24;;;;;;;8.10;4.60;;;;;;;8.42;92.27;101310.61;184947;1236;44074;-64
2023/05/03 04:52:25;;;;;;;9.50;5.80;;;;;;;8.94;89.17;101311.75;185188;1240;45979;-64
2023/05/03 04:56:37;;;;;;;10.50;5.50;;;;;;;9.19;88.11;101310.85;185128;1236;57444;-64
2023/05/03 05:00:45;;;;;;;10.30;6.40;;;;;;;9.50;85.55;101313.04;184948;1237;43609;-64
2023/05/03 05:04:46;;;;;;;8.90;6.10;;;;;;;10.06;82.70;101311.39;184837;1236;46060;-64
2023/05/03 05:08:54;;;;;;;10.20;5.70;;;;;;;10.99;81.35;101314.66;184687;1236;44060;-64
2023/05/03 05:12:56;;;;;;;13.20;5.30;;;;;;;11.32;76.62;101313.88;184771;1238;45226;-64
2023/05/03 05:16:58;;;;;;;10.30;4.70;;;;;;;11.44;73.81;101321.17;184707;1238;58219;-64
2023/05/03 05:21:00;;;;;;;9.30;5.60;;;;;;;11.63;73.69;101326.31;184607;1236;43799;-64
2023/05/03 05:25:02;;;;;;;12.00;6.20;;;;;;;11.61;74.82;101330.88;184667;1238;46685;-63
2023/05/03 05:29:04;;;;;;;6.50;5.00;;;;;;;11.44;74.05;101335.20;184455;1237;44703;-64
2023/05/03 05:33:10;;;;;;;7.70;4.90;;;;;;;11.03;74.16;101333.88;184730;1237;43550;-64
2023/05/03 05:37:12;;;;;;;7.30;4.70;;;;;;;10.80;75.98;101333.99;184843;1238;58262;-64
2023/05/03 05:41:21;;;;;;;15.80;6.10;;;;;;;10.62;75.96;101344.41;184836;1237;88705;-90
2023/05/03 05:49:53;;;;;;;9.50;5.10;;;;;;;10.40;78.38;101349.52;184855;1235;45111;-64
2023/05/03 05:53:57;;;;;;;10.80;5.40;;;;;;;10.54;78.46;101351.14;184778;1236;45894;-64
2023/05/03 05:58:00;;;;;;;8.00;4.50;;;;;;;10.68;77.43;101355.52;184858;1236;60176;-64
2023/05/03 06:06:39;;;;;;;7.30;4.50;;;;;;;10.84;75.02;101362.32;185523;1238;44691;-90
2023/05/03 06:15:00;;;;;;;5.30;4.80;;;;;;;11.68;73.27;101377.28;185773;1234;45689;-91
2023/05/03 06:57:51;;;;;;;6.30;3.10;;;;;;;13.41;59.28;101385.87;185492;1236;82079;-65
2023/05/03 07:06:38;;;;;;;6.50;2.80;;;;;;;14.06;56.22;101378.05;186527;1236;42971;-63
2023/05/03 07:11:01;;;;;;;10.90;4.10;;;;;;;14.33;53.85;101376.66;186479;1236;60039;-65
2023/05/03 07:15:04;;;;;;;4.90;2.90;;;;;;;14.70;53.02;101373.72;186498;1240;43509;-65
2023/05/03 07:19:05;;;;;;;5.70;3.30;;;;;;;15.14;53.07;101373.14;186496;1236;42994;-65
2023/05/03 07:23:07;;;;;;;12.90;2.60;;;;;;;15.39;52.36;101375.32;186446;1236;43658;-65
2023/05/03 07:27:08;;;;;;;9.10;3.20;;;;;;;15.73;50.92;101372.80;186300;1240;43387;-65
2023/05/03 07:31:10;;;;;;;3.10;2.20;;;;;;;16.03;49.50;101369.54;186543;1236;57408;-65
2023/05/03 07:35:12;;;;;;;4.50;2.10;;;;;;;16.14;48.26;101364.08;186503;1236;43620;-65
2023/05/03 07:39:14;;;;;;;5.60;2.80;;;;;;;16.28;48.62;101364.98;186573;1236;43043;-65
2023/05/03 07:43:18;;;;;;;9.90;2.80;;;;;;;16.49;48.68;101361.39;186322;1236;86551;-85
2023/05/03 07:47:20;;;;;;;9.10;3.50;;;;;;;16.02;49.34;101366.53;185843;1236;43950;-87
2023/05/03 07:51:22;;;;;;;4.40;2.30;;;;;;;16.26;50.24;101359.45;186047;1236;57994;-87
2023/05/03 07:55:24;;;;;;;4.70;2.60;;;;;;;16.29;50.44;101360.05;185755;1236;43623;-87
2023/05/03 07:59:26;;;;;;;5.40;2.20;;;;;;;16.31;49.31;101358.15;185897;1236;43734;-86
2023/05/03 08:03:28;;;;;;;7.10;2.40;;;;;;;15.72;49.84;101358.23;186000;1236;43718;-86
2023/05/03 08:07:30;;;;;;;7.20;2.80;;;;;;;15.24;50.88;101359.39;185895;1236;44039;-86
2023/05/03 08:11:35;;;;;;;5.70;1.60;;;;;;;14.54;50.93;101361.39;185851;1236;59264;-88
2023/05/03 08:15:37;;;;;;;5.80;2.70;;;;;;;14.18;51.36;101362.09;185839;1236;43913;-88
2023/05/03 08:19:39;;;;;;;12.60;3.00;;;;;;;14.19;51.37;101362.55;185921;1236;43822;-89
2023/05/03 08:23:41;;;;;;;3.60;2.80;;;;;;;14.41;51.23;101359.80;185851;1236;43744;-89
2023/05/03 08:27:43;;;;;;;2.80;2.20;;;;;;;14.15;51.35;101358.26;185941;1236;43824;-88
2023/05/03 08:31:45;;;;;;;7.60;2.40;;;;;;;13.98;51.96;101361.17;185805;1236;58000;-89
2023/05/03 08:35:47;;;;;;;5.90;2.70;;;;;;;14.13;52.96;101358.05;185916;1236;43956;-87
2023/05/03 08:39:51;;;;;;;6.10;3.00;;;;;;;14.23;53.35;101364.74;185933;1236;43983;-88
2023/05/03 08:43:53;;;;;;;11.40;3.10;;;;;;;14.48;51.23;101354.96;185692;1236;44034;-88
2023/05/03 08:47:56;;;;;;;4.20;2.40;;;;;;;14.66;51.18;101352.89;185848;1236;44145;-88
2023/05/03 08:52:00;;;;;;;4.90;2.30;;;;;;;14.61;51.63;101357.81;185657;1236;58005;-89
2023/05/03 08:56:09;;;;;;;8.30;3.10;;;;;;;14.39;50.07;101356.91;185954;1236;43826;-85
2023/05/03 09:00:11;;;;;;;2.40;2.10;;;;;;;13.79;50.79;101367.00;185700;1236;43957;-88
2023/05/03 09:04:13;;;;;;;6.60;2.70;;;;;;;13.79;51.51;101369.11;185905;1236;43976;-88
2023/05/03 09:08:15;;;;;;;8.90;2.00;;;;;;;14.31;53.06;101365.51;185853;1236;43819;-86
2023/05/03 09:12:39;;;;;;;4.40;2.50;;;;;;;14.92;50.75;101362.29;185792;1236;57929;-89
2023/05/03 09:16:43;;;;;;;5.80;2.50;;;;;;;15.34;49.64;101364.48;185845;1236;43786;-89
2023/05/03 09:20:50;;;;;;;6.50;3.10;;;;;;;15.70;47.74;101361.08;185866;1240;44039;-89
2023/05/03 09:24:57;;;;;;;3.80;2.80;;;;;;;16.07;47.32;101356.64;185921;1236;43732;-89
2023/05/03 09:29:00;;;;;;;4.00;1.90;;;;;;;16.27;46.45;101362.45;185863;1236;43948;-90
2023/05/03 09:33:03;;;;;;;7.50;2.30;;;;;;;16.33;48.06;101361.38;185768;1236;60254;-89
2023/05/03 09:37:05;;;;;;;8.60;2.90;;;;;;;16.10;49.87;101364.42;185913;1236;43667;-88
2023/05/03 09:41:07;;;;;;;5.10;2.80;;;;;;;15.92;47.72;101361.13;185914;1236;43595;-89
2023/05/03 09:45:10;;;;;;;6.40;3.00;;;;;;;15.63;47.69;101357.41;185938;1236;43852;-87
2023/05/03 09:49:12;;;;;;;3.80;2.60;;;;;;;15.38;49.42;101361.31;185923;1237;43946;-89
2023/05/03 09:53:20;;;;;;;4.40;3.00;;;;;;;15.30;46.93;101354.46;185856;1239;59511;-89
2023/05/03 09:57:22;;;;;;;3.70;2.60;;;;;;;15.39;46.32;101350.68;185934;1236;43707;-89
2023/05/03 10:01:25;;;;;;;2.60;2.10;;;;;;;15.36;46.50;101349.62;185750;1236;43769;-89
2023/05/03 10:05:31;;;;;;;8.10;2.80;;;;;;;15.58;47.82;101349.19;185863;1236;43627;-90
2023/05/03 10:09:41;;;;;;;4.10;2.20;;;;;;;15.80;48.63;101347.55;185839;1236;43732;-90
2023/05/03 10:13:44;;;;;;;5.30;2.60;;;;;;;15.89;48.32;101346.81;185959;1236;57827;-90
2023/05/03 10:17:52;;;;;;;5.70;2.80;;;;;;;15.89;48.08;101342.81;185859;1236;43606;-90
2023/05/03 10:22:10;;;;;;;7.20;3.00;;;;;;;16.01;47.82;101334.65;185935;1236;44158;-90
2023/05/03 10:26:16;;;;;;;4.20;2.80;;;;;;;15.73;48.84;101346.48;186104;1236;43883;-91
2023/05/03 10:30:40;;;;;;;6.80;2.80;;;;;;;15.44;48.31;101340.61;185972;1236;43988;-90
2023/05/03 10:34:44;;;;;;;3.90;2.50;;;;;;;15.67;48.24;101333.48;185987;1236;58162;-90
2023/05/03 10:43:30;;;;;;;5.40;2.60;;;;;;;15.98;50.56;101325.94;186210;1235;44009;-88
2023/05/03 10:47:36;;;;;;;3.90;2.30;;;;;;;15.98;47.12;101326.71;186283;1234;43817;-88
2023/05/03 10:51:39;;;;;;;12.20;3.10;;;;;;;15.78;49.06;101329.79;186055;1235;43710;-89
2023/05/03 10:56:20;;;;;;;5.80;2.70;;;;;;;15.53;53.14;101329.26;186001;1235;58167;-90
2023/05/03 11:00:42;;;;;;;4.00;2.00;;;;;;;15.36;49.94;101336.64;186077;1235;43729;-89
2023/05/03 11:04:48;;;;;;;6.00;2.50;;;;;;;15.41;49.67;101332.95;185914;1235;43783;-88
2023/05/03 11:08:50;;;;;;;;;;;;;;;15.55;48.60;101326.02;185940;1236;43792;-88
2023/05/03 11:12:55;;;;;;;4.40;2.50;;;;;;;15.77;48.58;101326.48;185916;1235;43858;-87
2023/05/03 11:16:57;;;;;;;6.90;3.00;;;;;;;15.93;48.97;101327.98;185783;1236;58033;-88
2023/05/03 11:21:00;;;;;;;3.10;2.40;;;;;;;15.97;49.72;101331.61;185899;1235;43907;-86
2023/05/03 11:25:02;;;;;;;5.40;2.80;;;;;;;16.07;49.22;101324.30;185698;1235;43858;-87
2023/05/03 11:29:05;;;;;;;3.00;2.10;;;;;;;15.94;50.67;101328.15;185744;1235;43911;-87
2023/05/03 11:33:07;;;;;;;4.20;2.20;;;;;;;15.74;49.20;101327.44;185695;1235;43759;-87
2023/05/03 11:37:09;;;;;;;5.90;3.20;;;;;;;15.77;48.88;101325.73;185708;1235;59243;-87
2023/05/03 11:41:16;;;;;;;3.60;2.50;;;;;;;15.79;49.23;101328.48;185993;1235;43769;-88
2023/05/03 11:45:26;;;;;;;4.90;2.60;;;;;;;15.73;48.69;101331.11;185519;1236;244620;-87
2023/05/03 11:49:28;;;;;;;4.00;2.70;;;;;;;15.74;48.34;101329.94;185865;1235;43864;-88
2023/05/03 11:53:31;;;;;;;4.10;3.00;;;;;;;15.87;48.54;101326.52;185758;1235;43699;-88
2023/05/03 11:57:33;;;;;;;5.60;2.30;;;;;;;16.14;49.69;101319.37;185677;1235;59627;-88
2023/05/03 12:01:35;;;;;;;8.10;3.10;;;;;;;16.32;50.13;101314.73;185951;1235;43814;-89
2023/05/03 12:05:37;;;;;;;2.70;2.20;;;;;;;16.11;48.98;101318.41;185958;1234;43917;-88
2023/05/03 12:09:39;;;;;;;8.90;2.70;;;;;;;16.24;49.08;101308.23;185827;1239;43727;-87
2023/05/03 12:13:45;;;;;;;5.00;1.90;;;;;;;16.05;48.44;101311.77;185788;1239;43816;-88
2023/05/03 12:17:55;;;;;;;4.30;2.40;;;;;;;15.99;49.20;101315.14;185834;1235;59662;-88
2023/05/03 12:21:58;;;;;;;3.30;1.90;;;;;;;16.14;47.79;101314.02;185886;1235;43920;-89
2023/05/03 12:26:21;;;;;;;8.20;3.00;;;;;;;16.32;47.82;101308.30;186295;1235;43987;-91
2023/05/03 12:30:23;;;;;;;4.80;2.20;;;;;;;16.54;45.55;101302.54;186065;1235;43850;-90
2023/05/03 12:34:26;;;;;;;7.10;2.30;;;;;;;16.69;46.47;101299.55;185958;1236;43842;-89
2023/05/03 12:38:31;;;;;;;5.30;3.40;;;;;;;16.61;47.75;101301.76;185856;1236;59348;-89
2023/05/03 12:42:39;;;;;;;8.50;3.20;;;;;;;16.51;46.40;101300.50;186125;1235;43999;-90
2023/05/03 12:46:45;;;;;;;5.10;1.90;;;;;;;16.68;47.32;101298.05;186048;1235;43829;-86
2023/05/03 12:50:48;;;;;;;3.50;1.90;;;;;;;16.84;47.74;101297.33;186048;1235;43804;-90
2023/05/03 12:54:56;;;;;;;2.80;2.00;;;;;;;17.04;46.29;101286.17;185999;1235;44083;-90
2023/05/03 12:58:59;;;;;;;2.60;2.00;;;;;;;17.23;45.71;101278.56;186157;1235;58047;-86
2023/05/03 13:03:04;;;;;;;4.00;2.90;;;;;;;17.33;47.58;101275.05;185892;1235;43659;-88
2023/05/03 13:07:15;;;;;;;4.60;2.90;;;;;;;17.47;46.82;101274.33;186135;1235;43853;-88
2023/05/03 13:11:18;;;;;;;2.70;2.20;;;;;;;17.51;46.29;101275.10;186214;1235;43656;-90
2023/05/03 13:15:24;;;;;;;3.40;1.70;;;;;;;17.55;45.94;101276.39;186035;1235;43826;-89
2023/05/03 13:19:26;;;;;;;4.80;2.40;;;;;;;17.54;46.48;101273.20;186003;1235;57818;-88
2023/05/03 13:23:28;;;;;;;5.20;3.40;;;;;;;17.49;47.31;101272.33;185959;1235;43768;-88
2023/05/03 13:27:31;;;;;;;5.90;2.40;;;;;;;17.25;46.85;101262.73;186090;1235;43829;-89
2023/05/03 13:31:33;;;;;;;5.70;2.90;;;;;;;17.16;46.92;101259.30;186209;1235;43768;-89
2023/05/03 13:35:36;;;;;;;6.00;2.10;;;;;;;17.28;47.22;101262.23;185891;1235;44225;-87
2023/05/03 13:39:38;;;;;;;3.40;2.10;;;;;;;17.30;46.30;101258.46;185843;1234;59507;-87
2023/05/03 13:43:41;;;;;;;3.10;2.60;;;;;;;17.18;45.62;101249.95;186033;1239;43576;-88
2023/05/03 13:47:43;;;;;;;4.20;2.10;;;;;;;16.86;47.38;101244.50;185882;1235;43818;-87
2023/05/03 13:51:48;;;;;;;4.90;2.30;;;;;;;16.84;47.35;101242.16;185781;1235;43668;-88
2023/05/03 13:55:50;;;;;;;2.70;2.20;;;;;;;16.97;48.21;101243.70;185774;1235;44085;-88
2023/05/03 13:59:55;;;;;;;6.30;1.70;;;;;;;17.12;46.92;101240.44;185865;1234;59415;-88
2023/05/03 14:03:57;;;;;;;5.20;1.70;;;;;;;17.14;45.68;101231.09;185784;1239;44181;-88
2023/05/03 14:07:59;;;;;;;5.50;2.80;;;;;;;17.20;45.79;101227.90;185920;1239;43832;-88
2023/05/03 14:12:02;;;;;;;4.80;3.10;;;;;;;17.12;45.33;101225.06;185902;1236;43856;-88
2023/05/03 14:16:05;;;;;;;3.30;2.60;;;;;;;17.10;46.53;101225.27;185887;1235;43785;-86
2023/05/03 14:20:09;;;;;;;5.80;3.10;;;;;;;17.22;46.32;101221.25;185906;1235;58169;-89
2023/05/03 14:24:11;;;;;;;7.50;2.30;;;;;;;17.44;46.26;101220.77;185922;1236;44020;-89
2023/05/03 14:28:14;;;;;;;4.20;2.30;;;;;;;17.67;45.35;101219.44;185990;1235;43781;-88
2023/05/03 14:36:52;;;;;;;6.50;2.90;;;;;;;17.79;46.30;101218.70;186488;1236;43441;-59
2023/05/03 14:40:54;;;;;;;3.50;2.30;;;;;;;17.72;47.66;101220.20;186404;1236;58498;-59
2023/05/03 14:45:07;;;;;;;7.00;2.90;;;;;;;17.60;47.61;101221.21;186381;1236;43717;-59
2023/05/03 14:49:13;;;;;;;4.70;2.20;;;;;;;17.78;47.03;101220.70;186368;1236;43004;-59
2023/05/03 14:53:15;;;;;;;5.00;2.10;;;;;;;17.85;45.70;101222.20;186447;1240;44281;-59
2023/05/03 14:57:17;;;;;;;4.30;2.10;;;;;;;17.77;44.65;101224.38;186318;1236;43063;-59
2023/05/03 15:01:19;;;;;;;4.20;2.50;;;;;;;17.72;45.97;101226.90;186305;1236;58014;-60
2023/05/03 15:05:20;;;;;;;3.50;2.10;;;;;;;17.61;45.17;101227.56;186414;1236;43535;-59
2023/05/03 15:09:22;;;;;;;2.40;1.60;;;;;;;17.67;44.92;101226.09;186372;1238;43101;-60
2023/05/03 15:13:29;;;;;;;2.80;2.00;;;;;;;17.62;44.99;101228.55;186432;1236;43390;-59
2023/05/03 15:17:30;;;;;;;2.70;2.00;;;;;;;17.69;47.48;101225.19;186389;1240;43746;-59
2023/05/03 15:21:43;;;;;;;3.90;2.40;;;;;;;17.78;46.14;101226.06;186393;1236;58053;-59
2023/05/03 15:25:45;;;;;;;5.70;1.90;;;;;;;17.79;46.38;101222.07;186379;1236;43125;-60
2023/05/03 15:29:46;;;;;;;4.90;1.40;;;;;;;17.77;45.82;101225.27;186387;1240;43144;-60
2023/05/03 15:33:48;;;;;;;4.90;2.60;;;;;;;17.78;45.40;101223.42;186448;1236;43564;-60
2023/05/03 15:37:49;;;;;;;5.70;2.70;;;;;;;17.74;45.09;101220.37;186376;1236;43382;-60
2023/05/03 15:41:51;;;;;;;4.00;1.70;;;;;;;17.70;44.52;101220.60;186403;1236;58173;-60
2023/05/03 15:45:54;;;;;;;4.00;2.00;;;;;;;17.75;45.66;101221.19;186364;1238;43068;-60
2023/05/03 15:49:59;;;;;;;2.80;2.20;;;;;;;17.79;46.79;101222.10;186393;1240;43671;-60
2023/05/03 15:54:00;;;;;;;3.50;2.10;;;;;;;17.79;45.56;101224.62;186362;1238;43841;-60
2023/05/03 15:58:02;;;;;;;4.30;2.10;;;;;;;17.68;45.55;101221.33;186405;1236;43304;-61
2023/05/03 16:02:03;;;;;;;3.70;2.00;;;;;;;17.63;46.25;101220.59;186405;1236;43720;-60
2023/05/03 16:06:05;;;;;;;6.20;1.80;;;;;;;17.59;45.60;101221.33;186425;1240;43183;-61
2023/05/03 16:10:08;;;;;;;4.80;1.80;;;;;;;17.57;44.84;101220.60;186425;1238;43416;-61
2023/05/03 16:14:09;;;;;;;4.90;1.90;;;;;;;17.42;44.89;101217.35;186474;1237;43110;-60
2023/05/03 16:18:11;;;;;;;4.60;2.10;;;;;;;17.34;44.98;101218.48;186359;1238;42967;-60
2023/05/03 16:22:13;;;;;;;2.30;1.60;;;;;;;17.30;45.51;101219.77;186372;1236;58191;-61
2023/05/03 16:26:18;;;;;;;2.10;1.50;;;;;;;17.22;45.70;101216.98;186467;1240;43401;-61
2023/05/03 16:30:19;;;;;;;4.10;1.70;;;;;;;17.21;46.02;101206.15;186342;1239;43612;-60
2023/05/03 16:34:21;;;;;;;3.70;1.80;;;;;;;17.21;45.27;101211.09;186464;1236;43707;-60
2023/05/03 16:38:29;;;;;;;4.50;2.10;;;;;;;17.24;46.08;101209.22;186373;1238;43642;-60
2023/05/03 16:42:31;;;;;;;4.90;2.00;;;;;;;17.27;47.49;101207.51;186455;1236;58247;-61
2023/05/03 16:46:33;;;;;;;3.60;2.00;;;;;;;17.21;45.40;101203.63;186449;1238;43543;-59
2023/05/03 16:50:36;;;;;;;7.60;2.70;;;;;;;17.17;46.20;101204.58;186307;1240;43140;-60
2023/05/03 16:54:38;;;;;;;2.80;1.70;;;;;;;17.06;46.27;101200.73;186423;1236;43872;-60
2023/05/03 16:58:40;;;;;;;1.80;1.60;;;;;;;16.96;46.76;101199.86;186516;1240;43071;-60
2023/05/03 17:02:41;;;;;;;3.20;2.10;;;;;;;16.87;48.05;101198.37;186465;1237;58212;-61
2023/05/03 17:06:43;;;;;;;2.90;1.90;;;;;;;16.75;48.60;101203.41;186443;1240;43014;-60
2023/05/03 17:10:44;;;;;;;3.10;1.70;;;;;;;16.64;48.67;101193.83;186473;1237;43065;-60
2023/05/03 17:14:46;;;;;;;5.20;1.50;;;;;;;16.58;49.48;101197.94;186386;1240;43077;-60
2023/05/03 17:18:52;;;;;;;6.70;2.20;;;;;;;16.49;49.43;101198.14;186388;1240;43041;-61
2023/05/03 17:22:56;;;;;;;3.60;1.80;;;;;;;16.34;49.27;101201.93;186430;1240;58096;-60
2023/05/03 17:26:58;;;;;;;3.90;1.70;;;;;;;16.16;50.68;101201.23;186465;1237;43379;-58
2023/05/03 17:31:55;;;;;;;4.00;2.60;;;;;;;15.98;50.90;101201.61;186426;1238;43026;-60
2023/05/03 17:35:59;;;;;;;6.80;2.30;;;;;;;15.76;51.13;101199.04;186441;1238;43021;-59
2023/05/03 17:40:18;;;;;;;3.80;2.70;;;;;;;15.55;50.57;101200.79;186525;1240;43046;-60
2023/05/03 17:44:19;;;;;;;2.80;2.00;;;;;;;15.31;51.74;101204.27;186474;1236;58074;-59
2023/05/03 17:48:23;;;;;;;4.70;3.20;;;;;;;15.09;52.07;101207.03;186487;1237;43027;-59
2023/05/03 17:52:24;;;;;;;6.50;2.60;;;;;;;14.89;52.41;101210.52;186451;1240;43153;-59
2023/05/03 17:56:26;;;;;;;3.50;2.40;;;;;;;14.68;53.20;101214.92;186466;1237;43787;-59
2023/05/03 18:00:37;;;;;;;7.50;6.10;;;;;;;14.50;53.43;101214.33;186478;1238;42984;-59
2023/05/03 18:04:38;;;;;;;7.00;4.10;;;;;;;14.29;54.25;101213.34;186454;1238;57606;-59
2023/05/03 18:08:40;;;;;;;6.80;5.00;;;;;;;14.12;54.51;101213.52;186489;1236;43701;-59
2023/05/03 18:12:42;;;;;;;10.60;4.80;;;;;;;13.94;55.19;101214.25;186384;1236;43043;-59
2023/05/03 18:16:43;;;;;;;5.60;3.10;;;;;;;13.78;55.13;101218.21;186572;1237;43481;-58
2023/05/03 18:20:45;;;;;;;6.50;3.60;;;;;;;13.64;55.64;101217.55;186491;1236;43129;-60
2023/05/03 18:24:54;;;;;;;7.70;4.20;;;;;;;13.51;55.67;101217.81;186465;1237;58113;-60
2023/05/03 18:28:55;;;;;;;5.80;3.60;;;;;;;13.39;55.82;101226.23;186391;1237;43576;-60
2023/05/03 18:32:58;;;;;;;5.90;3.90;;;;;;;13.31;56.30;101230.23;186501;1237;43008;-60
2023/05/03 18:37:00;;;;;;;10.20;5.70;;;;;;;13.20;56.61;101232.01;186461;1238;43638;-62
2023/05/03 18:41:09;;;;;;;9.70;5.50;;;;;;;13.11;56.92;101230.73;186501;1236;43675;-60
2023/05/03 18:45:13;;;;;;;7.70;6.40;;;;;;;13.00;57.55;101235.48;186449;1237;57374;-60
2023/05/03 18:49:15;;;;;;;11.40;7.00;;;;;;;12.87;58.11;101236.11;186420;1238;43971;-60
2023/05/03 18:53:17;;;;;;;8.00;5.20;;;;;;;12.72;58.53;101238.28;186400;1238;42939;-60
2023/05/03 18:57:18;;;;;;;7.70;3.80;;;;;;;12.58;58.63;101241.85;186496;1237;43086;-61
2023/05/03 19:01:20;;;;;;;8.30;3.40;;;;;;;12.45;59.21;101248.82;186437;1236;43087;-60
2023/05/03 19:05:21;;;;;;;7.90;4.10;;;;;;;12.34;59.87;101249.66;186450;1238;58026;-60
2023/05/03 19:09:23;;;;;;;5.70;3.70;;;;;;;12.21;60.50;101253.80;186429;1237;44091;-61
2023/05/03 19:13:24;;;;;;;8.90;2.80;;;;;;;12.09;61.38;101260.72;186444;1238;43535;-60
2023/05/03 19:17:27;;;;;;;4.50;2.80;;;;;;;11.97;62.40;101259.95;186424;1237;43792;-60
2023/05/03 19:21:28;;;;;;;7.90;4.00;;;;;;;11.88;62.83;101268.25;186486;1237;43771;-60
2023/05/03 19:25:30;;;;;;;5.20;4.00;;;;;;;11.82;63.16;101267.61;186447;1238;57116;-60
2023/05/03 19:29:31;;;;;;;9.30;2.90;;;;;;;11.77;63.02;101269.73;186450;1236;43066;-60
2023/05/03 19:33:38;;;;;;;8.70;4.60;;;;;;;11.72;62.89;101265.29;186381;1237;43001;-60
2023/05/03 19:37:41;;;;;;;8.50;4.00;;;;;;;11.68;62.74;101265.90;186452;1236;43355;-61
2023/05/03 19:41:42;;;;;;;14.60;5.00;;;;;;;11.66;62.71;101273.48;186473;1238;43092;-60
2023/05/03 19:45:44;;;;;;;12.10;6.10;;;;;;;11.63;62.96;101275.46;186435;1236;57994;-61
2023/05/03 19:49:46;;;;;;;12.70;6.30;;;;;;;11.59;63.50;101276.15;186412;1236;43945;-61
2023/05/03 19:53:47;;;;;;;16.90;5.50;;;;;;;11.47;63.96;101276.39;186379;1236;43068;-60
2023/05/03 19:57:50;;;;;;;7.60;4.60;;;;;;;11.31;66.68;101279.83;186461;1237;43047;-60
2023/05/03 20:01:51;;;;;;;30.60;9.90;;;;;;;10.96;69.80;101280.20;186447;1237;43052;-60
2023/05/03 20:06:01;;;;;;;44.50;11.00;;;;;;;10.61;71.99;101274.92;186380;1237;57590;-60
2023/05/03 20:10:04;;;;;;;23.50;12.80;;;;;;;10.30;73.72;101275.98;186380;1238;43133;-61
2023/05/03 20:14:17;;;;;;;25.80;12.50;;;;;;;10.05;74.82;101268.94;186420;1240;43621;-61
2023/05/03 20:18:18;;;;;;;18.70;9.00;;;;;;;9.81;76.09;101271.09;186339;1238;43157;-61
2023/05/03 20:22:34;;;;;;;19.30;11.00;;;;;;;9.72;74.73;101268.50;186467;1238;43249;-60